Fuerteventura > ESTACION METEOROLÓGICA Costa Calma - Pájara

DATOS ACTUALES Online

Ultima actulizacion 33 minutos

19.8 ºC

Temperatura

74

Humedad (%)

1013.3

Presión (mb)

0

Precipitación (mm)

14 N

Viento (Km/h)

DATOS DIARIOS

Temperatura últimas 24 horas (ºC)

Humedad últimas 24 horas (%)

Presión atmosférica últimas 24 horas (mb)

Precipitaciones últimas 23 horas (mm)

Viento últimas 24 horas (Km/h)

Hora Temperatura (°C) ºC Precipitación (mm) mm Presión (mb) mb Humedad (%) % Viento (Km/h) km/h
29 - 00:00 19.5 0 1014 79 20.8 N
29 - 01:00 19.3 0 1014 79 21.3 N
29 - 02:00 19.1 0 1013 79 14.1 N
29 - 03:00 19.5 0 1013 77 19.3 N
29 - 04:00 19.3 0 1012 72 27.5 NW
29 - 05:00 18.8 0 1012 78 16.3 NW
29 - 06:00 19 0 1012 78 14.1 N
29 - 07:00 19.3 0 1013 74 11.1 N
29 - 08:00 20.6 0 1014 69 18.8 N
29 - 09:00 21.2 0 1014 66 23.3 N
29 - 10:00 22 0 1014 62 28.3 N
29 - 11:00 21.8 0 1014 62 37.4 NW
29 - 12:00 22.3 0 1014 64 42.1 N
29 - 13:00 22.4 0 1013 62 40.4 NW
29 - 14:00 22.7 0 1013 60 39.3 NW
29 - 15:00 22.6 0 1012 59 37.6 NW
29 - 16:00 22.4 0 1013 60 36.1 NW
29 - 17:00 22.1 0 1012 62 43.2 NW
29 - 18:00 21.9 0 1012 64 36.5 N
29 - 19:00 21.3 0 1012 69 31.9 N
29 - 20:00 20.7 0 1013 73 25.8 N
29 - 21:00 20.5 0 1013 70 17.2 N
29 - 22:00 20.2 0 1013 73 14.1 N
29 - 23:00 20 0 1013 74 12.6 N
30 - 00:00 19.8 0 1013 74 14 N
Apalmet utiliza cookies propias y de terceros para mejorar la usabilidad y la experiencia web. Política de cookies.